sensor_id;sensor_type;location;lat;lon;timestamp;pressure;altitude;pressure_sealevel;temperature;humidity
68988;BME280;56038;46.080;11.116;2023-04-23T00:02:32;98988.19;;;14.70;65.91
68988;BME280;56038;46.080;11.116;2023-04-23T00:07:44;98991.09;;;14.65;64.71
68988;BME280;56038;46.080;11.116;2023-04-23T00:13:07;98981.91;;;14.58;65.85
68988;BME280;56038;46.080;11.116;2023-04-23T00:18:17;98979.28;;;14.58;65.29
68988;BME280;56038;46.080;11.116;2023-04-23T00:23:19;98985.31;;;14.46;65.65
68988;BME280;56038;46.080;11.116;2023-04-23T00:28:22;98976.56;;;14.31;67.03
68988;BME280;56038;46.080;11.116;2023-04-23T00:33:24;98980.97;;;14.30;66.06
68988;BME280;56038;46.080;11.116;2023-04-23T00:38:26;98977.59;;;14.28;65.76
68988;BME280;56038;46.080;11.116;2023-04-23T00:43:29;98982.84;;;14.28;66.30
68988;BME280;56038;46.080;11.116;2023-04-23T00:48:32;98982.28;;;14.23;66.21
68988;BME280;56038;46.080;11.116;2023-04-23T00:53:34;98969.63;;;14.30;65.85
68988;BME280;56038;46.080;11.116;2023-04-23T00:58:38;98978.63;;;14.40;65.13
68988;BME280;56038;46.080;11.116;2023-04-23T01:03:41;98973.00;;;14.46;64.67
68988;BME280;56038;46.080;11.116;2023-04-23T01:08:52;98981.06;;;14.43;64.94
68988;BME280;56038;46.080;11.116;2023-04-23T01:14:04;98982.28;;;14.37;65.38
68988;BME280;56038;46.080;11.116;2023-04-23T01:19:07;98979.19;;;14.17;65.96
68988;BME280;56038;46.080;11.116;2023-04-23T01:24:11;98979.09;;;14.18;65.31
68988;BME280;56038;46.080;11.116;2023-04-23T01:29:13;98978.63;;;14.12;66.36
68988;BME280;56038;46.080;11.116;2023-04-23T01:34:15;98985.09;;;13.92;67.68
68988;BME280;56038;46.080;11.116;2023-04-23T01:39:19;98983.56;;;13.88;67.28
68988;BME280;56038;46.080;11.116;2023-04-23T01:44:20;98975.03;;;13.84;68.13
68988;BME280;56038;46.080;11.116;2023-04-23T01:49:22;98973.00;;;13.89;67.40
68988;BME280;56038;46.080;11.116;2023-04-23T01:54:25;98985.63;;;13.83;68.12
68988;BME280;56038;46.080;11.116;2023-04-23T01:59:27;98972.28;;;13.71;69.73
68988;BME280;56038;46.080;11.116;2023-04-23T02:04:29;98969.31;;;13.77;68.37
68988;BME280;56038;46.080;11.116;2023-04-23T02:09:32;98971.03;;;13.93;67.48
68988;BME280;56038;46.080;11.116;2023-04-23T02:14:34;98973.25;;;13.99;67.63
68988;BME280;56038;46.080;11.116;2023-04-23T02:19:36;98959.59;;;14.08;67.02
68988;BME280;56038;46.080;11.116;2023-04-23T02:24:41;98950.97;;;14.06;66.79
68988;BME280;56038;46.080;11.116;2023-04-23T02:29:43;98949.19;;;14.06;66.95
68988;BME280;56038;46.080;11.116;2023-04-23T02:34:45;98955.44;;;14.04;66.74
68988;BME280;56038;46.080;11.116;2023-04-23T02:39:48;98951.31;;;14.00;67.42
68988;BME280;56038;46.080;11.116;2023-04-23T02:44:50;98946.91;;;14.00;67.40
68988;BME280;56038;46.080;11.116;2023-04-23T02:49:51;98947.28;;;13.94;67.54
68988;BME280;56038;46.080;11.116;2023-04-23T02:54:55;98945.22;;;13.99;67.29
68988;BME280;56038;46.080;11.116;2023-04-23T02:59:56;98949.91;;;13.94;67.33
68988;BME280;56038;46.080;11.116;2023-04-23T03:04:58;98962.00;;;13.83;67.84
68988;BME280;56038;46.080;11.116;2023-04-23T03:10:01;98963.88;;;13.81;67.92
68988;BME280;56038;46.080;11.116;2023-04-23T03:15:03;98960.88;;;13.87;67.74
68988;BME280;56038;46.080;11.116;2023-04-23T03:20:07;98960.09;;;13.70;69.41
68988;BME280;56038;46.080;11.116;2023-04-23T03:25:11;98955.09;;;13.52;69.88
68988;BME280;56038;46.080;11.116;2023-04-23T03:30:13;98967.38;;;13.51;69.77
68988;BME280;56038;46.080;11.116;2023-04-23T03:35:14;98966.66;;;13.33;71.11
68988;BME280;56038;46.080;11.116;2023-04-23T03:40:18;98969.84;;;13.38;70.27
68988;BME280;56038;46.080;11.116;2023-04-23T03:45:20;98969.91;;;13.23;72.04
68988;BME280;56038;46.080;11.116;2023-04-23T03:50:21;98971.94;;;13.02;73.92
68988;BME280;56038;46.080;11.116;2023-04-23T03:55:24;98969.59;;;12.97;73.00
68988;BME280;56038;46.080;11.116;2023-04-23T04:00:26;98964.34;;;12.81;74.13
68988;BME280;56038;46.080;11.116;2023-04-23T04:05:37;98964.44;;;12.80;73.85
68988;BME280;56038;46.080;11.116;2023-04-23T04:10:47;98972.63;;;12.89;72.96
68988;BME280;56038;46.080;11.116;2023-04-23T04:15:49;98971.59;;;12.92;73.13
68988;BME280;56038;46.080;11.116;2023-04-23T04:20:52;98973.06;;;12.98;72.53
68988;BME280;56038;46.080;11.116;2023-04-23T04:25:55;98965.69;;;12.88;74.26
68988;BME280;56038;46.080;11.116;2023-04-23T04:31:00;98967.16;;;12.94;72.81
68988;BME280;56038;46.080;11.116;2023-04-23T04:36:03;98967.47;;;12.88;72.92
68988;BME280;56038;46.080;11.116;2023-04-23T04:41:06;98966.13;;;12.81;74.23
68988;BME280;56038;46.080;11.116;2023-04-23T04:46:08;98973.91;;;12.82;72.94
68988;BME280;56038;46.080;11.116;2023-04-23T04:51:29;98978.53;;;12.93;73.77
68988;BME280;56038;46.080;11.116;2023-04-23T04:56:32;98970.91;;;13.04;71.96
68988;BME280;56038;46.080;11.116;2023-04-23T05:01:33;98979.31;;;13.11;71.96
68988;BME280;56038;46.080;11.116;2023-04-23T05:06:36;98978.69;;;13.22;71.61
68988;BME280;56038;46.080;11.116;2023-04-23T05:11:39;98982.69;;;13.29;71.86
68988;BME280;56038;46.080;11.116;2023-04-23T05:16:40;98985.88;;;13.34;71.15
68988;BME280;56038;46.080;11.116;2023-04-23T05:21:42;98985.50;;;13.40;71.12
68988;BME280;56038;46.080;11.116;2023-04-23T05:26:45;98988.63;;;13.46;70.79
68988;BME280;56038;46.080;11.116;2023-04-23T05:31:47;99000.38;;;13.55;70.52
68988;BME280;56038;46.080;11.116;2023-04-23T05:36:48;98990.84;;;13.68;70.42
68988;BME280;56038;46.080;11.116;2023-04-23T05:41:52;98996.31;;;13.79;70.08
68988;BME280;56038;46.080;11.116;2023-04-23T05:46:53;98996.88;;;13.85;70.16
68988;BME280;56038;46.080;11.116;2023-04-23T05:51:55;98999.25;;;13.89;69.97
68988;BME280;56038;46.080;11.116;2023-04-23T05:56:59;98989.75;;;13.87;69.74
68988;BME280;56038;46.080;11.116;2023-04-23T06:02:02;98988.47;;;13.94;69.45
68988;BME280;56038;46.080;11.116;2023-04-23T06:07:05;98986.19;;;14.02;68.96
68988;BME280;56038;46.080;11.116;2023-04-23T06:12:10;98979.38;;;14.14;69.31
68988;BME280;56038;46.080;11.116;2023-04-23T06:17:11;98974.78;;;14.17;68.91
68988;BME280;56038;46.080;11.116;2023-04-23T06:22:13;98990.53;;;14.17;68.95
68988;BME280;56038;46.080;11.116;2023-04-23T06:27:16;98989.88;;;14.14;68.85
68988;BME280;56038;46.080;11.116;2023-04-23T06:32:18;98986.59;;;13.96;69.63
68988;BME280;56038;46.080;11.116;2023-04-23T06:37:20;98990.53;;;13.89;69.86
68988;BME280;56038;46.080;11.116;2023-04-23T06:42:22;98989.31;;;14.08;69.01
68988;BME280;56038;46.080;11.116;2023-04-23T06:47:24;98983.03;;;14.25;68.41
68988;BME280;56038;46.080;11.116;2023-04-23T06:52:26;98980.88;;;14.32;68.60
68988;BME280;56038;46.080;11.116;2023-04-23T06:57:29;98982.84;;;14.43;67.98
68988;BME280;56038;46.080;11.116;2023-04-23T07:02:30;98977.22;;;14.63;67.71
68988;BME280;56038;46.080;11.116;2023-04-23T07:07:32;98963.19;;;14.77;67.31
68988;BME280;56038;46.080;11.116;2023-04-23T07:12:38;98960.91;;;14.99;66.32
68988;BME280;56038;46.080;11.116;2023-04-23T07:17:40;98967.97;;;15.11;66.77
68988;BME280;56038;46.080;11.116;2023-04-23T07:22:42;98966.75;;;15.29;65.90
68988;BME280;56038;46.080;11.116;2023-04-23T07:27:45;98966.91;;;15.41;65.82
68988;BME280;56038;46.080;11.116;2023-04-23T07:32:46;98956.06;;;15.45;65.50
68988;BME280;56038;46.080;11.116;2023-04-23T07:37:48;98958.47;;;15.63;64.95
68988;BME280;56038;46.080;11.116;2023-04-23T07:42:54;98946.22;;;15.62;64.95
68988;BME280;56038;46.080;11.116;2023-04-23T07:47:56;98941.59;;;15.78;64.69
68988;BME280;56038;46.080;11.116;2023-04-23T07:52:58;98938.03;;;16.04;64.23
68988;BME280;56038;46.080;11.116;2023-04-23T07:58:01;98940.81;;;16.39;63.42
68988;BME280;56038;46.080;11.116;2023-04-23T08:03:03;98935.88;;;16.35;63.16
68988;BME280;56038;46.080;11.116;2023-04-23T08:08:05;98938.06;;;16.41;62.80
68988;BME280;56038;46.080;11.116;2023-04-23T08:13:08;98943.44;;;16.39;62.82
68988;BME280;56038;46.080;11.116;2023-04-23T08:18:10;98938.59;;;16.46;62.53
68988;BME280;56038;46.080;11.116;2023-04-23T08:23:12;98937.03;;;16.43;62.69
68988;BME280;56038;46.080;11.116;2023-04-23T08:28:15;98923.47;;;16.61;62.43
68988;BME280;56038;46.080;11.116;2023-04-23T08:33:16;98922.13;;;16.92;61.57
68988;BME280;56038;46.080;11.116;2023-04-23T08:38:18;98913.16;;;17.29;60.81
68988;BME280;56038;46.080;11.116;2023-04-23T08:43:27;98912.50;;;17.39;59.93
68988;BME280;56038;46.080;11.116;2023-04-23T08:48:33;98900.25;;;17.38;60.38
68988;BME280;56038;46.080;11.116;2023-04-23T08:53:34;98901.22;;;17.48;59.84
68988;BME280;56038;46.080;11.116;2023-04-23T08:58:38;98902.03;;;17.94;58.97
68988;BME280;56038;46.080;11.116;2023-04-23T09:03:42;98899.41;;;18.06;58.33
68988;BME280;56038;46.080;11.116;2023-04-23T09:08:44;98895.31;;;18.35;57.42
68988;BME280;56038;46.080;11.116;2023-04-23T09:13:48;98879.78;;;18.64;56.45
68988;BME280;56038;46.080;11.116;2023-04-23T09:18:51;98884.00;;;19.20;55.25
68988;BME280;56038;46.080;11.116;2023-04-23T09:23:53;98879.09;;;19.15;54.97
68988;BME280;56038;46.080;11.116;2023-04-23T09:28:56;98853.34;;;19.17;54.38
68988;BME280;56038;46.080;11.116;2023-04-23T09:33:58;98839.91;;;20.12;52.16
68988;BME280;56038;46.080;11.116;2023-04-23T09:39:00;98838.44;;;20.28;50.12
68988;BME280;56038;46.080;11.116;2023-04-23T09:44:03;98828.22;;;20.83;49.61
68988;BME280;56038;46.080;11.116;2023-04-23T09:49:05;98826.94;;;21.16;49.48
68988;BME280;56038;46.080;11.116;2023-04-23T09:54:12;98818.88;;;21.65;46.30
68988;BME280;56038;46.080;11.116;2023-04-23T09:59:23;98822.03;;;22.42;43.85
68988;BME280;56038;46.080;11.116;2023-04-23T10:04:25;98813.97;;;22.07;44.90
68988;BME280;56038;46.080;11.116;2023-04-23T10:09:28;98805.81;;;21.81;45.76
68988;BME280;56038;46.080;11.116;2023-04-23T10:14:32;98798.38;;;21.47;47.04
68988;BME280;56038;46.080;11.116;2023-04-23T10:19:36;98791.69;;;21.24;47.55
68988;BME280;56038;46.080;11.116;2023-04-23T10:24:40;98790.16;;;22.68;44.38
68988;BME280;56038;46.080;11.116;2023-04-23T10:29:44;98790.47;;;23.01;44.18
68988;BME280;56038;46.080;11.116;2023-04-23T10:34:49;98788.13;;;22.62;44.75
68988;BME280;56038;46.080;11.116;2023-04-23T10:45:42;98785.44;;;22.27;44.95
68988;BME280;56038;46.080;11.116;2023-04-23T10:50:44;98779.94;;;22.10;44.18
68988;BME280;56038;46.080;11.116;2023-04-23T10:55:46;98774.31;;;22.14;45.45
68988;BME280;56038;46.080;11.116;2023-04-23T11:00:49;98756.16;;;23.50;43.05
68988;BME280;56038;46.080;11.116;2023-04-23T11:05:59;98767.56;;;24.36;38.89
68988;BME280;56038;46.080;11.116;2023-04-23T11:11:06;98757.81;;;23.77;41.77
68988;BME280;56038;46.080;11.116;2023-04-23T11:16:14;98745.13;;;23.19;41.39
68988;BME280;56038;46.080;11.116;2023-04-23T11:21:17;98743.69;;;23.84;42.01
68988;BME280;56038;46.080;11.116;2023-04-23T11:26:19;98731.19;;;25.17;39.78
68988;BME280;56038;46.080;11.116;2023-04-23T11:31:25;98723.91;;;25.97;36.88
68988;BME280;56038;46.080;11.116;2023-04-23T11:36:26;98709.97;;;26.41;37.36
68988;BME280;56038;46.080;11.116;2023-04-23T11:41:28;98700.41;;;26.61;36.95
68988;BME280;56038;46.080;11.116;2023-04-23T11:46:31;98696.44;;;26.57;35.70
68988;BME280;56038;46.080;11.116;2023-04-23T11:51:33;98691.16;;;25.95;36.48
68988;BME280;56038;46.080;11.116;2023-04-23T11:56:35;98696.16;;;24.63;38.77
68988;BME280;56038;46.080;11.116;2023-04-23T12:01:46;98689.53;;;23.92;37.81
68988;BME280;56038;46.080;11.116;2023-04-23T12:06:49;98688.41;;;23.00;39.91
68988;BME280;56038;46.080;11.116;2023-04-23T12:11:52;98692.00;;;22.48;41.57
68988;BME280;56038;46.080;11.116;2023-04-23T12:16:55;98683.31;;;21.65;41.13
68988;BME280;56038;46.080;11.116;2023-04-23T12:21:59;98691.19;;;21.10;41.28
68988;BME280;56038;46.080;11.116;2023-04-23T12:27:01;98684.47;;;20.20;43.84
68988;BME280;56038;46.080;11.116;2023-04-23T12:32:04;98676.50;;;18.90;50.34
68988;BME280;56038;46.080;11.116;2023-04-23T12:37:06;98652.38;;;18.63;51.15
68988;BME280;56038;46.080;11.116;2023-04-23T12:42:08;98653.84;;;18.76;51.90
68988;BME280;56038;46.080;11.116;2023-04-23T12:47:11;98644.97;;;20.46;48.67
68988;BME280;56038;46.080;11.116;2023-04-23T12:52:15;98656.09;;;21.80;47.39
68988;BME280;56038;46.080;11.116;2023-04-23T12:57:16;98670.09;;;21.73;47.33
68988;BME280;56038;46.080;11.116;2023-04-23T13:02:23;98661.75;;;21.40;49.39
68988;BME280;56038;46.080;11.116;2023-04-23T13:07:25;98660.63;;;21.06;49.25
68988;BME280;56038;46.080;11.116;2023-04-23T13:12:27;98641.97;;;20.78;48.90
68988;BME280;56038;46.080;11.116;2023-04-23T13:17:30;98640.19;;;20.30;49.84
68988;BME280;56038;46.080;11.116;2023-04-23T13:22:32;98640.03;;;19.84;50.73
68988;BME280;56038;46.080;11.116;2023-04-23T13:27:34;98615.09;;;19.36;51.42
68988;BME280;56038;46.080;11.116;2023-04-23T13:32:37;98616.88;;;19.57;50.73
68988;BME280;56038;46.080;11.116;2023-04-23T13:37:38;98619.53;;;19.57;52.86
68988;BME280;56038;46.080;11.116;2023-04-23T13:42:40;98620.84;;;19.01;52.77
68988;BME280;56038;46.080;11.116;2023-04-23T13:47:43;98599.31;;;18.85;53.19
68988;BME280;56038;46.080;11.116;2023-04-23T13:52:45;98599.97;;;18.77;53.12
68988;BME280;56038;46.080;11.116;2023-04-23T13:57:47;98595.06;;;19.03;52.10
68988;BME280;56038;46.080;11.116;2023-04-23T14:02:50;98590.56;;;19.34;51.15
68988;BME280;56038;46.080;11.116;2023-04-23T14:07:52;98590.06;;;20.56;48.06
68988;BME280;56038;46.080;11.116;2023-04-23T14:12:54;98588.41;;;20.46;46.53
68988;BME280;56038;46.080;11.116;2023-04-23T14:17:57;98588.38;;;21.02;45.69
68988;BME280;56038;46.080;11.116;2023-04-23T14:23:02;98571.38;;;21.86;43.75
68988;BME280;56038;46.080;11.116;2023-04-23T14:28:22;98580.69;;;21.54;42.63
68988;BME280;56038;46.080;11.116;2023-04-23T14:33:29;98582.47;;;21.99;43.32
68988;BME280;56038;46.080;11.116;2023-04-23T14:38:31;98567.47;;;21.44;43.14
68988;BME280;56038;46.080;11.116;2023-04-23T14:43:32;98571.06;;;20.61;44.13
68988;BME280;56038;46.080;11.116;2023-04-23T14:48:35;98559.31;;;20.63;44.67
68988;BME280;56038;46.080;11.116;2023-04-23T14:53:37;98552.69;;;21.60;43.29
68988;BME280;56038;46.080;11.116;2023-04-23T14:58:39;98548.34;;;21.59;43.54
68988;BME280;56038;46.080;11.116;2023-04-23T15:03:42;98548.81;;;21.54;43.09
68988;BME280;56038;46.080;11.116;2023-04-23T15:08:44;98552.47;;;21.53;43.62
68988;BME280;56038;46.080;11.116;2023-04-23T15:13:54;98555.28;;;21.51;42.83
68988;BME280;56038;46.080;11.116;2023-04-23T15:18:59;98544.41;;;21.80;42.45
68988;BME280;56038;46.080;11.116;2023-04-23T15:24:01;98543.66;;;21.52;40.79
68988;BME280;56038;46.080;11.116;2023-04-23T15:29:03;98547.59;;;21.21;43.05
68988;BME280;56038;46.080;11.116;2023-04-23T15:34:09;98556.84;;;20.89;42.61
68988;BME280;56038;46.080;11.116;2023-04-23T15:39:11;98544.38;;;20.62;43.39
68988;BME280;56038;46.080;11.116;2023-04-23T15:44:13;98546.78;;;20.46;43.60
68988;BME280;56038;46.080;11.116;2023-04-23T15:49:16;98529.50;;;20.42;43.28
68988;BME280;56038;46.080;11.116;2023-04-23T15:54:18;98542.31;;;20.56;43.26
68988;BME280;56038;46.080;11.116;2023-04-23T15:59:19;98542.84;;;20.60;42.84
68988;BME280;56038;46.080;11.116;2023-04-23T16:04:22;98546.47;;;20.69;43.00
68988;BME280;56038;46.080;11.116;2023-04-23T16:09:24;98535.56;;;20.62;42.34
68988;BME280;56038;46.080;11.116;2023-04-23T16:14:26;98524.75;;;20.46;42.67
68988;BME280;56038;46.080;11.116;2023-04-23T16:19:29;98524.88;;;20.34;42.91
68988;BME280;56038;46.080;11.116;2023-04-23T16:24:31;98528.31;;;20.08;43.19
68988;BME280;56038;46.080;11.116;2023-04-23T16:29:32;98524.81;;;20.07;43.29
68988;BME280;56038;46.080;11.116;2023-04-23T16:34:35;98521.59;;;20.13;42.94
68988;BME280;56038;46.080;11.116;2023-04-23T16:39:37;98522.28;;;20.15;42.15
68988;BME280;56038;46.080;11.116;2023-04-23T16:44:38;98521.88;;;20.20;42.87
68988;BME280;56038;46.080;11.116;2023-04-23T16:49:41;98524.00;;;19.78;43.69
68988;BME280;56038;46.080;11.116;2023-04-23T16:54:44;98518.69;;;19.68;44.26
68988;BME280;56038;46.080;11.116;2023-04-23T16:59:48;98513.09;;;19.71;44.39
68988;BME280;56038;46.080;11.116;2023-04-23T17:04:54;98514.50;;;19.65;43.40
68988;BME280;56038;46.080;11.116;2023-04-23T17:09:55;98512.41;;;19.69;43.46
68988;BME280;56038;46.080;11.116;2023-04-23T17:14:57;98508.38;;;19.65;43.83
68988;BME280;56038;46.080;11.116;2023-04-23T17:20:00;98498.63;;;19.65;43.73
68988;BME280;56038;46.080;11.116;2023-04-23T17:25:03;98493.44;;;19.54;43.89
68988;BME280;56038;46.080;11.116;2023-04-23T17:30:06;98494.00;;;19.48;43.94
68988;BME280;56038;46.080;11.116;2023-04-23T17:35:09;98492.88;;;19.41;44.43
68988;BME280;56038;46.080;11.116;2023-04-23T17:40:11;98489.53;;;19.29;44.78
68988;BME280;56038;46.080;11.116;2023-04-23T17:45:13;98495.78;;;19.19;45.08
68988;BME280;56038;46.080;11.116;2023-04-23T17:50:16;98492.84;;;19.12;45.43
68988;BME280;56038;46.080;11.116;2023-04-23T17:55:28;98485.56;;;19.04;45.68
68988;BME280;56038;46.080;11.116;2023-04-23T18:00:33;98480.56;;;19.01;45.64
68988;BME280;56038;46.080;11.116;2023-04-23T18:05:44;98482.50;;;18.99;45.60
68988;BME280;56038;46.080;11.116;2023-04-23T18:10:55;98493.75;;;18.92;46.01
68988;BME280;56038;46.080;11.116;2023-04-23T18:15:56;98496.81;;;18.87;45.93
68988;BME280;56038;46.080;11.116;2023-04-23T18:20:58;98493.88;;;18.80;46.39
68988;BME280;56038;46.080;11.116;2023-04-23T18:26:03;98488.97;;;18.76;46.53
68988;BME280;56038;46.080;11.116;2023-04-23T18:31:05;98502.53;;;18.62;46.98
68988;BME280;56038;46.080;11.116;2023-04-23T18:36:18;98498.34;;;18.59;46.91
68988;BME280;56038;46.080;11.116;2023-04-23T18:41:23;98498.59;;;18.46;47.41
68988;BME280;56038;46.080;11.116;2023-04-23T18:46:24;98499.09;;;18.31;48.23
68988;BME280;56038;46.080;11.116;2023-04-23T18:51:30;98511.53;;;18.19;49.04
68988;BME280;56038;46.080;11.116;2023-04-23T18:56:35;98501.78;;;17.99;52.34
68988;BME280;56038;46.080;11.116;2023-04-23T19:01:37;98500.25;;;17.96;51.46
68988;BME280;56038;46.080;11.116;2023-04-23T19:06:39;98493.63;;;17.81;53.60
68988;BME280;56038;46.080;11.116;2023-04-23T19:11:42;98503.16;;;17.72;53.84
68988;BME280;56038;46.080;11.116;2023-04-23T19:16:44;98498.59;;;17.63;53.90
68988;BME280;56038;46.080;11.116;2023-04-23T19:21:47;98503.88;;;17.63;53.70
68988;BME280;56038;46.080;11.116;2023-04-23T19:26:51;98509.28;;;17.61;53.82
68988;BME280;56038;46.080;11.116;2023-04-23T19:31:55;98504.13;;;17.60;54.01
68988;BME280;56038;46.080;11.116;2023-04-23T19:36:57;98514.44;;;17.63;53.83
68988;BME280;56038;46.080;11.116;2023-04-23T19:42:00;98500.66;;;17.59;54.18
68988;BME280;56038;46.080;11.116;2023-04-23T19:47:03;98502.72;;;17.56;54.73
68988;BME280;56038;46.080;11.116;2023-04-23T19:52:06;98493.25;;;17.53;55.64
68988;BME280;56038;46.080;11.116;2023-04-23T19:57:11;98520.84;;;17.49;56.63
68988;BME280;56038;46.080;11.116;2023-04-23T20:02:13;98540.38;;;17.26;58.94
68988;BME280;56038;46.080;11.116;2023-04-23T20:07:15;98545.09;;;17.00;61.10
68988;BME280;56038;46.080;11.116;2023-04-23T20:12:19;98564.19;;;16.92;64.47
68988;BME280;56038;46.080;11.116;2023-04-23T20:17:21;98573.91;;;16.81;62.33
68988;BME280;56038;46.080;11.116;2023-04-23T20:22:26;98557.94;;;16.71;63.28
68988;BME280;56038;46.080;11.116;2023-04-23T20:27:29;98580.34;;;16.65;64.16
68988;BME280;56038;46.080;11.116;2023-04-23T20:32:31;98570.75;;;16.42;65.39
68988;BME280;56038;46.080;11.116;2023-04-23T20:37:32;98564.50;;;16.43;64.66
68988;BME280;56038;46.080;11.116;2023-04-23T20:42:35;98561.78;;;16.09;71.64
68988;BME280;56038;46.080;11.116;2023-04-23T20:47:38;98556.19;;;15.79;72.49
68988;BME280;56038;46.080;11.116;2023-04-23T20:53:10;98564.72;;;15.94;73.28
68988;BME280;56038;46.080;11.116;2023-04-23T20:58:17;98564.81;;;15.81;69.47
68988;BME280;56038;46.080;11.116;2023-04-23T21:03:19;98560.72;;;15.77;70.56
68988;BME280;56038;46.080;11.116;2023-04-23T21:08:21;98558.31;;;15.74;69.89
68988;BME280;56038;46.080;11.116;2023-04-23T21:13:24;98539.03;;;15.62;69.66
68988;BME280;56038;46.080;11.116;2023-04-23T21:18:25;98539.94;;;15.61;70.40
68988;BME280;56038;46.080;11.116;2023-04-23T21:23:27;98544.47;;;15.35;71.43
68988;BME280;56038;46.080;11.116;2023-04-23T21:28:30;98541.56;;;15.27;71.41
68988;BME280;56038;46.080;11.116;2023-04-23T21:33:31;98535.41;;;15.15;72.37
68988;BME280;56038;46.080;11.116;2023-04-23T21:38:33;98533.19;;;15.09;72.30
68988;BME280;56038;46.080;11.116;2023-04-23T21:43:37;98530.47;;;15.11;72.77
68988;BME280;56038;46.080;11.116;2023-04-23T21:48:38;98520.38;;;15.05;74.58
68988;BME280;56038;46.080;11.116;2023-04-23T21:53:40;98511.31;;;15.09;75.11
68988;BME280;56038;46.080;11.116;2023-04-23T21:58:43;98511.34;;;14.96;76.53
68988;BME280;56038;46.080;11.116;2023-04-23T22:03:45;98519.22;;;14.59;78.76
68988;BME280;56038;46.080;11.116;2023-04-23T22:08:47;98508.81;;;14.58;78.99
68988;BME280;56038;46.080;11.116;2023-04-23T22:13:50;98494.75;;;14.59;79.47
68988;BME280;56038;46.080;11.116;2023-04-23T22:18:51;98503.06;;;14.53;79.19
68988;BME280;56038;46.080;11.116;2023-04-23T22:23:53;98502.63;;;14.46;79.30
68988;BME280;56038;46.080;11.116;2023-04-23T22:28:56;98515.44;;;14.51;79.30
68988;BME280;56038;46.080;11.116;2023-04-23T22:33:58;98533.63;;;14.41;81.38
68988;BME280;56038;46.080;11.116;2023-04-23T22:38:59;98536.03;;;14.31;82.68
68988;BME280;56038;46.080;11.116;2023-04-23T22:44:05;98500.72;;;14.35;82.45
68988;BME280;56038;46.080;11.116;2023-04-23T22:49:08;98498.00;;;14.37;82.56
68988;BME280;56038;46.080;11.116;2023-04-23T22:54:13;98474.78;;;14.18;83.60
68988;BME280;56038;46.080;11.116;2023-04-23T22:59:16;98491.06;;;13.98;83.47
68988;BME280;56038;46.080;11.116;2023-04-23T23:04:17;98477.94;;;13.85;85.02
68988;BME280;56038;46.080;11.116;2023-04-23T23:09:19;98478.97;;;13.83;89.63
68988;BME280;56038;46.080;11.116;2023-04-23T23:14:22;98470.03;;;13.85;86.57
68988;BME280;56038;46.080;11.116;2023-04-23T23:19:24;98460.72;;;13.81;87.94
68988;BME280;56038;46.080;11.116;2023-04-23T23:24:27;98461.13;;;13.75;89.66
68988;BME280;56038;46.080;11.116;2023-04-23T23:29:30;98452.94;;;13.92;87.04
68988;BME280;56038;46.080;11.116;2023-04-23T23:34:31;98443.91;;;14.09;85.63
68988;BME280;56038;46.080;11.116;2023-04-23T23:39:33;98440.44;;;14.08;84.08
68988;BME280;56038;46.080;11.116;2023-04-23T23:44:36;98438.88;;;14.06;82.54
68988;BME280;56038;46.080;11.116;2023-04-23T23:49:37;98443.38;;;14.04;83.03
68988;BME280;56038;46.080;11.116;2023-04-23T23:54:39;98446.94;;;14.03;83.33
68988;BME280;56038;46.080;11.116;2023-04-23T23:59:42;98440.97;;;13.88;83.39
